sensor_id;sensor_type;location;lat;lon;timestamp;pressure;altitude;pressure_sealevel;temperature
64296;BMP280;51082;38.236;15.432;2023-05-07T00:00:45;101376.41;;;15.85
64296;BMP280;51082;38.236;15.432;2023-05-07T00:01:46;101378.00;;;15.86
64296;BMP280;51082;38.236;15.432;2023-05-07T00:02:49;101373.13;;;15.89
64296;BMP280;51082;38.236;15.432;2023-05-07T00:03:50;101375.59;;;15.91
64296;BMP280;51082;38.236;15.432;2023-05-07T00:04:53;101369.88;;;15.94
64296;BMP280;51082;38.236;15.432;2023-05-07T00:05:54;101366.69;;;15.92
64296;BMP280;51082;38.236;15.432;2023-05-07T00:06:56;101367.25;;;15.94
64296;BMP280;51082;38.236;15.432;2023-05-07T00:07:59;101373.94;;;15.90
64296;BMP280;51082;38.236;15.432;2023-05-07T00:09:01;101372.75;;;15.86
64296;BMP280;51082;38.236;15.432;2023-05-07T00:10:04;101367.31;;;15.81
64296;BMP280;51082;38.236;15.432;2023-05-07T00:11:07;101360.28;;;15.75
64296;BMP280;51082;38.236;15.432;2023-05-07T00:12:08;101363.34;;;15.72
64296;BMP280;51082;38.236;15.432;2023-05-07T00:13:10;101357.88;;;15.67
64296;BMP280;51082;38.236;15.432;2023-05-07T00:14:12;101360.75;;;15.65
64296;BMP280;51082;38.236;15.432;2023-05-07T00:15:14;101354.69;;;15.65
64296;BMP280;51082;38.236;15.432;2023-05-07T00:16:18;101353.25;;;15.62
64296;BMP280;51082;38.236;15.432;2023-05-07T00:17:24;101356.69;;;15.63
64296;BMP280;51082;38.236;15.432;2023-05-07T00:18:25;101350.25;;;15.58
64296;BMP280;51082;38.236;15.432;2023-05-07T00:19:27;101348.25;;;15.60
64296;BMP280;51082;38.236;15.432;2023-05-07T00:20:29;101355.66;;;15.64
64296;BMP280;51082;38.236;15.432;2023-05-07T00:21:31;101347.19;;;15.61
64296;BMP280;51082;38.236;15.432;2023-05-07T00:22:32;101346.59;;;15.66
64296;BMP280;51082;38.236;15.432;2023-05-07T00:23:36;101353.25;;;15.69
64296;BMP280;51082;38.236;15.432;2023-05-07T00:24:37;101356.22;;;15.72
64296;BMP280;51082;38.236;15.432;2023-05-07T00:25:40;101350.25;;;15.65
64296;BMP280;51082;38.236;15.432;2023-05-07T00:26:41;101352.25;;;15.63
64296;BMP280;51082;38.236;15.432;2023-05-07T00:27:43;101344.41;;;15.56
64296;BMP280;51082;38.236;15.432;2023-05-07T00:28:45;101345.41;;;15.55
64296;BMP280;51082;38.236;15.432;2023-05-07T00:29:47;101354.72;;;15.51
64296;BMP280;51082;38.236;15.432;2023-05-07T00:30:50;101344.41;;;15.56
64296;BMP280;51082;38.236;15.432;2023-05-07T00:31:52;101345.78;;;15.59
64296;BMP280;51082;38.236;15.432;2023-05-07T00:32:55;101347.44;;;15.60
64296;BMP280;51082;38.236;15.432;2023-05-07T00:33:57;101349.44;;;15.58
64296;BMP280;51082;38.236;15.432;2023-05-07T00:34:58;101346.44;;;15.54
64296;BMP280;51082;38.236;15.432;2023-05-07T00:36:01;101349.03;;;15.54
64296;BMP280;51082;38.236;15.432;2023-05-07T00:37:02;101351.66;;;15.54
64296;BMP280;51082;38.236;15.432;2023-05-07T00:38:05;101347.44;;;15.53
64296;BMP280;51082;38.236;15.432;2023-05-07T00:39:07;101352.50;;;15.48
64296;BMP280;51082;38.236;15.432;2023-05-07T00:40:10;101348.66;;;15.44
64296;BMP280;51082;38.236;15.432;2023-05-07T00:41:11;101345.81;;;15.46
64296;BMP280;51082;38.236;15.432;2023-05-07T00:42:14;101356.13;;;15.47
64296;BMP280;51082;38.236;15.432;2023-05-07T00:43:17;101363.63;;;15.44
64296;BMP280;51082;38.236;15.432;2023-05-07T00:44:19;101353.91;;;15.44
64296;BMP280;51082;38.236;15.432;2023-05-07T00:45:20;101368.63;;;15.45
64296;BMP280;51082;38.236;15.432;2023-05-07T00:46:23;101356.53;;;15.44
64296;BMP280;51082;38.236;15.432;2023-05-07T00:47:24;101355.16;;;15.42
64296;BMP280;51082;38.236;15.432;2023-05-07T00:48:29;101348.09;;;15.42
64296;BMP280;51082;38.236;15.432;2023-05-07T00:49:33;101354.31;;;15.41
64296;BMP280;51082;38.236;15.432;2023-05-07T00:50:38;101359.16;;;15.44
64296;BMP280;51082;38.236;15.432;2023-05-07T00:51:39;101354.94;;;15.43
64296;BMP280;51082;38.236;15.432;2023-05-07T00:52:41;101351.09;;;15.39
64296;BMP280;51082;38.236;15.432;2023-05-07T00:53:43;101353.69;;;15.46
64296;BMP280;51082;38.236;15.432;2023-05-07T00:54:47;101351.91;;;15.46
64296;BMP280;51082;38.236;15.432;2023-05-07T00:55:48;101342.41;;;15.45
64296;BMP280;51082;38.236;15.432;2023-05-07T00:56:50;101347.66;;;15.39
64296;BMP280;51082;38.236;15.432;2023-05-07T00:57:52;101347.88;;;15.37
64296;BMP280;51082;38.236;15.432;2023-05-07T00:58:54;101346.69;;;15.33
64296;BMP280;51082;38.236;15.432;2023-05-07T00:59:55;101351.31;;;15.31
64296;BMP280;51082;38.236;15.432;2023-05-07T01:00:59;101341.84;;;15.30
64296;BMP280;51082;38.236;15.432;2023-05-07T01:02:00;101345.28;;;15.30
64296;BMP280;51082;38.236;15.432;2023-05-07T01:03:03;101345.88;;;15.26
64296;BMP280;51082;38.236;15.432;2023-05-07T01:04:04;101343.66;;;15.23
64296;BMP280;51082;38.236;15.432;2023-05-07T01:05:07;101337.03;;;15.20
64296;BMP280;51082;38.236;15.432;2023-05-07T01:06:09;101331.97;;;15.25
64296;BMP280;51082;38.236;15.432;2023-05-07T01:07:13;101332.97;;;15.24
64296;BMP280;51082;38.236;15.432;2023-05-07T01:08:14;101332.97;;;15.24
64296;BMP280;51082;38.236;15.432;2023-05-07T01:09:18;101336.59;;;15.23
64296;BMP280;51082;38.236;15.432;2023-05-07T01:10:22;101337.41;;;15.24
64296;BMP280;51082;38.236;15.432;2023-05-07T01:11:24;101328.53;;;15.25
64296;BMP280;51082;38.236;15.432;2023-05-07T01:12:26;101341.66;;;15.25
64296;BMP280;51082;38.236;15.432;2023-05-07T01:13:29;101334.81;;;15.24
64296;BMP280;51082;38.236;15.432;2023-05-07T01:14:31;101330.97;;;15.26
64296;BMP280;51082;38.236;15.432;2023-05-07T01:15:34;101338.22;;;15.31
64296;BMP280;51082;38.236;15.432;2023-05-07T01:16:36;101331.13;;;15.32
64296;BMP280;51082;38.236;15.432;2023-05-07T01:17:40;101333.34;;;15.35
64296;BMP280;51082;38.236;15.432;2023-05-07T01:18:44;101328.31;;;15.33
64296;BMP280;51082;38.236;15.432;2023-05-07T01:19:48;101325.91;;;15.38
64296;BMP280;51082;38.236;15.432;2023-05-07T01:20:51;101322.88;;;15.35
64296;BMP280;51082;38.236;15.432;2023-05-07T01:21:53;101323.69;;;15.28
64296;BMP280;51082;38.236;15.432;2023-05-07T01:22:59;101322.03;;;15.27
64296;BMP280;51082;38.236;15.432;2023-05-07T01:24:02;101323.28;;;15.25
64296;BMP280;51082;38.236;15.432;2023-05-07T01:25:04;101323.69;;;15.22
64296;BMP280;51082;38.236;15.432;2023-05-07T01:26:06;101321.47;;;15.25
64296;BMP280;51082;38.236;15.432;2023-05-07T01:27:07;101324.91;;;15.26
64296;BMP280;51082;38.236;15.432;2023-05-07T01:28:10;101327.50;;;15.33
64296;BMP280;51082;38.236;15.432;2023-05-07T01:29:11;101321.88;;;15.29
64296;BMP280;51082;38.236;15.432;2023-05-07T01:30:13;101327.53;;;15.26
64296;BMP280;51082;38.236;15.432;2023-05-07T01:31:15;101326.53;;;15.20
64296;BMP280;51082;38.236;15.432;2023-05-07T01:32:19;101322.09;;;15.21
64296;BMP280;51082;38.236;15.432;2023-05-07T01:33:22;101325.72;;;15.20
64296;BMP280;51082;38.236;15.432;2023-05-07T01:34:27;101323.69;;;15.22
64296;BMP280;51082;38.236;15.432;2023-05-07T01:35:34;101318.84;;;15.25
64296;BMP280;51082;38.236;15.432;2023-05-07T01:36:38;101308.75;;;15.29
64296;BMP280;51082;38.236;15.432;2023-05-07T01:37:40;101317.03;;;15.26
64296;BMP280;51082;38.236;15.432;2023-05-07T01:38:44;101309.75;;;15.28
64296;BMP280;51082;38.236;15.432;2023-05-07T01:39:46;101300.28;;;15.27
64296;BMP280;51082;38.236;15.432;2023-05-07T01:40:48;101310.56;;;15.22
64296;BMP280;51082;38.236;15.432;2023-05-07T01:41:50;101301.50;;;15.18
64296;BMP280;51082;38.236;15.432;2023-05-07T01:42:55;101308.78;;;15.16
64296;BMP280;51082;38.236;15.432;2023-05-07T01:43:57;101301.13;;;15.21
64296;BMP280;51082;38.236;15.432;2023-05-07T01:45:00;101302.91;;;15.27
64296;BMP280;51082;38.236;15.432;2023-05-07T01:46:01;101299.88;;;15.23
64296;BMP280;51082;38.236;15.432;2023-05-07T01:47:04;101297.06;;;15.25
64296;BMP280;51082;38.236;15.432;2023-05-07T01:48:06;101298.25;;;15.22
64296;BMP280;51082;38.236;15.432;2023-05-07T01:49:10;101289.03;;;15.20
64296;BMP280;51082;38.236;15.432;2023-05-07T01:50:11;101297.47;;;15.22
64296;BMP280;51082;38.236;15.432;2023-05-07T01:51:14;101293.25;;;15.21
64296;BMP280;51082;38.236;15.432;2023-05-07T01:52:15;101295.88;;;15.21
64296;BMP280;51082;38.236;15.432;2023-05-07T01:53:17;101287.38;;;15.25
64296;BMP280;51082;38.236;15.432;2023-05-07T01:54:21;101294.63;;;15.23
64296;BMP280;51082;38.236;15.432;2023-05-07T01:55:28;101289.38;;;15.23
64296;BMP280;51082;38.236;15.432;2023-05-07T01:56:29;101293.25;;;15.21
64296;BMP280;51082;38.236;15.432;2023-05-07T01:57:34;101291.66;;;15.20
64296;BMP280;51082;38.236;15.432;2023-05-07T01:58:35;101284.16;;;15.17
64296;BMP280;51082;38.236;15.432;2023-05-07T01:59:38;101287.38;;;15.19
64296;BMP280;51082;38.236;15.432;2023-05-07T02:00:39;101287.59;;;15.17
64296;BMP280;51082;38.236;15.432;2023-05-07T02:01:42;101283.59;;;15.15
64296;BMP280;51082;38.236;15.432;2023-05-07T02:02:43;101282.16;;;15.12
64296;BMP280;51082;38.236;15.432;2023-05-07T02:03:45;101285.19;;;15.09
64296;BMP280;51082;38.236;15.432;2023-05-07T02:04:46;101287.00;;;15.09
64296;BMP280;51082;38.236;15.432;2023-05-07T02:05:48;101290.84;;;15.06
64296;BMP280;51082;38.236;15.432;2023-05-07T02:06:50;101283.16;;;15.11
64296;BMP280;51082;38.236;15.432;2023-05-07T02:07:54;101285.59;;;15.13
64296;BMP280;51082;38.236;15.432;2023-05-07T02:08:55;101284.41;;;15.15
64296;BMP280;51082;38.236;15.432;2023-05-07T02:10:00;101287.19;;;15.20
64296;BMP280;51082;38.236;15.432;2023-05-07T02:11:01;101286.19;;;15.21
64296;BMP280;51082;38.236;15.432;2023-05-07T02:12:04;101283.34;;;15.23
64296;BMP280;51082;38.236;15.432;2023-05-07T02:13:06;101283.97;;;15.25
64296;BMP280;51082;38.236;15.432;2023-05-07T02:14:08;101291.38;;;15.28
64296;BMP280;51082;38.236;15.432;2023-05-07T02:15:10;101289.38;;;15.30
64296;BMP280;51082;38.236;15.432;2023-05-07T02:16:12;101288.38;;;15.31
64296;BMP280;51082;38.236;15.432;2023-05-07T02:17:14;101291.00;;;15.31
64296;BMP280;51082;38.236;15.432;2023-05-07T02:18:16;101292.59;;;15.32
64296;BMP280;51082;38.236;15.432;2023-05-07T02:19:19;101288.16;;;15.33
64296;BMP280;51082;38.236;15.432;2023-05-07T02:20:21;101290.78;;;15.33
64296;BMP280;51082;38.236;15.432;2023-05-07T02:21:25;101288.97;;;15.33
64296;BMP280;51082;38.236;15.432;2023-05-07T02:22:26;101288.16;;;15.33
64296;BMP280;51082;38.236;15.432;2023-05-07T02:23:29;101286.75;;;15.30
64296;BMP280;51082;38.236;15.432;2023-05-07T02:24:30;101289.00;;;15.26
64296;BMP280;51082;38.236;15.432;2023-05-07T02:25:34;101292.22;;;15.22
64296;BMP280;51082;38.236;15.432;2023-05-07T02:26:35;101289.03;;;15.20
64296;BMP280;51082;38.236;15.432;2023-05-07T02:27:38;101291.00;;;15.18
64296;BMP280;51082;38.236;15.432;2023-05-07T02:28:39;101291.47;;;15.15
64296;BMP280;51082;38.236;15.432;2023-05-07T02:29:44;101289.81;;;15.14
64296;BMP280;51082;38.236;15.432;2023-05-07T02:30:46;101300.72;;;15.11
64296;BMP280;51082;38.236;15.432;2023-05-07T02:31:48;101305.38;;;15.09
64296;BMP280;51082;38.236;15.432;2023-05-07T02:32:51;101298.69;;;15.13
64296;BMP280;51082;38.236;15.432;2023-05-07T02:33:53;101297.88;;;15.19
64296;BMP280;51082;38.236;15.432;2023-05-07T02:34:54;101298.09;;;15.24
64296;BMP280;51082;38.236;15.432;2023-05-07T02:35:57;101290.81;;;15.26
64296;BMP280;51082;38.236;15.432;2023-05-07T02:36:58;101293.03;;;15.29
64296;BMP280;51082;38.236;15.432;2023-05-07T02:38:03;101294.63;;;15.30
64296;BMP280;51082;38.236;15.432;2023-05-07T02:39:04;101287.34;;;15.32
64296;BMP280;51082;38.236;15.432;2023-05-07T02:40:09;101288.38;;;15.31
64296;BMP280;51082;38.236;15.432;2023-05-07T02:41:12;101286.75;;;15.30
64296;BMP280;51082;38.236;15.432;2023-05-07T02:42:14;101297.06;;;15.25
64296;BMP280;51082;38.236;15.432;2023-05-07T02:43:16;101295.88;;;15.21
64296;BMP280;51082;38.236;15.432;2023-05-07T02:44:18;101295.88;;;15.14
64296;BMP280;51082;38.236;15.432;2023-05-07T02:45:19;101304.94;;;15.12
64296;BMP280;51082;38.236;15.432;2023-05-07T02:46:22;101294.88;;;15.09
64296;BMP280;51082;38.236;15.432;2023-05-07T02:47:24;101299.53;;;15.07
64296;BMP280;51082;38.236;15.432;2023-05-07T02:48:27;101298.50;;;15.08
64296;BMP280;51082;38.236;15.432;2023-05-07T02:49:29;101299.13;;;15.10
64296;BMP280;51082;38.236;15.432;2023-05-07T02:50:30;101297.50;;;15.09
64296;BMP280;51082;38.236;15.432;2023-05-07T02:51:33;101294.28;;;15.07
64296;BMP280;51082;38.236;15.432;2023-05-07T02:52:34;101290.66;;;15.08
64296;BMP280;51082;38.236;15.432;2023-05-07T02:53:36;101291.25;;;15.10
64296;BMP280;51082;38.236;15.432;2023-05-07T02:54:37;101292.06;;;15.04
64296;BMP280;51082;38.236;15.432;2023-05-07T02:55:40;101279.78;;;14.97
64296;BMP280;51082;38.236;15.432;2023-05-07T02:56:42;101290.66;;;14.94
64296;BMP280;51082;38.236;15.432;2023-05-07T02:57:45;101286.41;;;14.93
64296;BMP280;51082;38.236;15.432;2023-05-07T02:58:49;101283.38;;;14.96
64296;BMP280;51082;38.236;15.432;2023-05-07T02:59:52;101274.94;;;14.94
64296;BMP280;51082;38.236;15.432;2023-05-07T03:00:53;101279.38;;;14.94
64296;BMP280;51082;38.236;15.432;2023-05-07T03:01:56;101273.72;;;14.90
64296;BMP280;51082;38.236;15.432;2023-05-07T03:02:57;101268.88;;;14.87
64296;BMP280;51082;38.236;15.432;2023-05-07T03:04:00;101269.09;;;14.86
64296;BMP280;51082;38.236;15.432;2023-05-07T03:05:01;101266.69;;;14.84
64296;BMP280;51082;38.236;15.432;2023-05-07T03:06:04;101265.69;;;14.85
64296;BMP280;51082;38.236;15.432;2023-05-07T03:07:05;101271.53;;;14.81
64296;BMP280;51082;38.236;15.432;2023-05-07T03:08:08;101275.34;;;14.78
64296;BMP280;51082;38.236;15.432;2023-05-07T03:09:09;101276.34;;;14.77
64296;BMP280;51082;38.236;15.432;2023-05-07T03:10:12;101270.31;;;14.77
64296;BMP280;51082;38.236;15.432;2023-05-07T03:11:13;101267.06;;;14.81
64296;BMP280;51082;38.236;15.432;2023-05-07T03:12:17;101269.13;;;14.79
64296;BMP280;51082;38.236;15.432;2023-05-07T03:13:18;101264.84;;;14.78
64296;BMP280;51082;38.236;15.432;2023-05-07T03:14:23;101260.00;;;14.82
64296;BMP280;51082;38.236;15.432;2023-05-07T03:15:24;101268.69;;;14.76
64296;BMP280;51082;38.236;15.432;2023-05-07T03:16:29;101261.63;;;14.76
64296;BMP280;51082;38.236;15.432;2023-05-07T03:17:30;101264.06;;;14.78
64296;BMP280;51082;38.236;15.432;2023-05-07T03:18:33;101266.06;;;14.76
64296;BMP280;51082;38.236;15.432;2023-05-07T03:19:37;101253.19;;;14.81
64296;BMP280;51082;38.236;15.432;2023-05-07T03:20:42;101253.97;;;14.81
64296;BMP280;51082;38.236;15.432;2023-05-07T03:21:43;101254.38;;;14.78
64296;BMP280;51082;38.236;15.432;2023-05-07T03:22:45;101258.22;;;14.76
64296;BMP280;51082;38.236;15.432;2023-05-07T03:23:47;101253.19;;;14.74
64296;BMP280;51082;38.236;15.432;2023-05-07T03:24:49;101254.59;;;14.70
64296;BMP280;51082;38.236;15.432;2023-05-07T03:25:50;101247.94;;;14.67
64296;BMP280;51082;38.236;15.432;2023-05-07T03:26:52;101248.75;;;14.68
64296;BMP280;51082;38.236;15.432;2023-05-07T03:27:55;101239.50;;;14.65
64296;BMP280;51082;38.236;15.432;2023-05-07T03:28:58;101246.72;;;14.70
64296;BMP280;51082;38.236;15.432;2023-05-07T03:29:59;101243.09;;;14.71
64296;BMP280;51082;38.236;15.432;2023-05-07T03:31:02;101253.19;;;14.67
64296;BMP280;51082;38.236;15.432;2023-05-07T03:32:08;101249.56;;;14.62
64296;BMP280;51082;38.236;15.432;2023-05-07T03:33:11;101251.38;;;14.61
64296;BMP280;51082;38.236;15.432;2023-05-07T03:34:12;101248.94;;;14.60
64296;BMP280;51082;38.236;15.432;2023-05-07T03:35:14;101249.16;;;14.58
64296;BMP280;51082;38.236;15.432;2023-05-07T03:36:15;101256.19;;;14.58
64296;BMP280;51082;38.236;15.432;2023-05-07T03:37:18;101252.00;;;14.57
64296;BMP280;51082;38.236;15.432;2023-05-07T03:38:19;101244.72;;;14.59
64296;BMP280;51082;38.236;15.432;2023-05-07T03:39:22;101250.75;;;14.59
64296;BMP280;51082;38.236;15.432;2023-05-07T03:40:23;101251.19;;;14.63
64296;BMP280;51082;38.236;15.432;2023-05-07T03:41:26;101258.00;;;14.64
64296;BMP280;51082;38.236;15.432;2023-05-07T03:42:27;101256.81;;;14.66
64296;BMP280;51082;38.236;15.432;2023-05-07T03:43:32;101258.81;;;14.64
64296;BMP280;51082;38.236;15.432;2023-05-07T03:44:33;101260.06;;;14.62
64296;BMP280;51082;38.236;15.432;2023-05-07T03:45:36;101263.69;;;14.61
64296;BMP280;51082;38.236;15.432;2023-05-07T03:46:38;101265.09;;;14.57
64296;BMP280;51082;38.236;15.432;2023-05-07T03:47:40;101265.28;;;14.55
64296;BMP280;51082;38.236;15.432;2023-05-07T03:48:44;101267.72;;;14.57
64296;BMP280;51082;38.236;15.432;2023-05-07T03:49:46;101263.06;;;14.59
64296;BMP280;51082;38.236;15.432;2023-05-07T03:50:48;101266.88;;;14.56
64296;BMP280;51082;38.236;15.432;2023-05-07T03:51:51;101272.53;;;14.60
64296;BMP280;51082;38.236;15.432;2023-05-07T03:52:53;101266.31;;;14.61
64296;BMP280;51082;38.236;15.432;2023-05-07T03:53:55;101273.72;;;14.64
64296;BMP280;51082;38.236;15.432;2023-05-07T03:54:57;101278.97;;;14.64
64296;BMP280;51082;38.236;15.432;2023-05-07T03:56:00;101277.97;;;14.65
64296;BMP280;51082;38.236;15.432;2023-05-07T03:57:01;101284.22;;;14.64
64296;BMP280;51082;38.236;15.432;2023-05-07T03:58:03;101279.59;;;14.66
64296;BMP280;51082;38.236;15.432;2023-05-07T03:59:06;101283.41;;;14.70
64296;BMP280;51082;38.236;15.432;2023-05-07T04:00:09;101275.97;;;14.74
64296;BMP280;51082;38.236;15.432;2023-05-07T04:01:10;101283.41;;;14.70
64296;BMP280;51082;38.236;15.432;2023-05-07T04:02:13;101275.53;;;14.63
64296;BMP280;51082;38.236;15.432;2023-05-07T04:03:14;101281.59;;;14.64
64296;BMP280;51082;38.236;15.432;2023-05-07T04:04:16;101288.88;;;14.62
64296;BMP280;51082;38.236;15.432;2023-05-07T04:05:18;101296.31;;;14.58
64296;BMP280;51082;38.236;15.432;2023-05-07T04:06:20;101292.50;;;14.61
64296;BMP280;51082;38.236;15.432;2023-05-07T04:07:21;101293.69;;;14.58
64296;BMP280;51082;38.236;15.432;2023-05-07T04:08:24;101293.91;;;14.57
64296;BMP280;51082;38.236;15.432;2023-05-07T04:09:25;101290.25;;;14.58
64296;BMP280;51082;38.236;15.432;2023-05-07T04:10:29;101303.19;;;14.66
64296;BMP280;51082;38.236;15.432;2023-05-07T04:11:30;101294.31;;;14.67
64296;BMP280;51082;38.236;15.432;2023-05-07T04:12:32;101295.91;;;14.68
64296;BMP280;51082;38.236;15.432;2023-05-07T04:13:34;101296.72;;;14.62
64296;BMP280;51082;38.236;15.432;2023-05-07T04:14:38;101305.16;;;14.64
64296;BMP280;51082;38.236;15.432;2023-05-07T04:15:39;101309.19;;;14.60
64296;BMP280;51082;38.236;15.432;2023-05-07T04:16:41;101308.59;;;14.58
64296;BMP280;51082;38.236;15.432;2023-05-07T04:17:42;101309.63;;;14.57
64296;BMP280;51082;38.236;15.432;2023-05-07T04:18:45;101306.41;;;14.61
64296;BMP280;51082;38.236;15.432;2023-05-07T04:19:46;101318.06;;;14.59
64296;BMP280;51082;38.236;15.432;2023-05-07T04:20:48;101314.44;;;14.60
64296;BMP280;51082;38.236;15.432;2023-05-07T04:21:50;101314.03;;;14.56
64296;BMP280;51082;38.236;15.432;2023-05-07T04:22:55;101316.06;;;14.54
64296;BMP280;51082;38.236;15.432;2023-05-07T04:23:56;101324.13;;;14.53
64296;BMP280;51082;38.236;15.432;2023-05-07T04:24:59;101313.22;;;14.56
64296;BMP280;51082;38.236;15.432;2023-05-07T04:26:00;101319.47;;;14.55
64296;BMP280;51082;38.236;15.432;2023-05-07T04:27:03;101321.28;;;14.54
64296;BMP280;51082;38.236;15.432;2023-05-07T04:28:06;101323.91;;;14.54
64296;BMP280;51082;38.236;15.432;2023-05-07T04:29:08;101324.31;;;14.58
64296;BMP280;51082;38.236;15.432;2023-05-07T04:30:12;101329.56;;;14.58
64296;BMP280;51082;38.236;15.432;2023-05-07T04:31:15;101330.16;;;14.60
64296;BMP280;51082;38.236;15.432;2023-05-07T04:32:17;101335.41;;;14.60
64296;BMP280;51082;38.236;15.432;2023-05-07T04:33:19;101333.22;;;14.57
64296;BMP280;51082;38.236;15.432;2023-05-07T04:34:20;101329.34;;;14.53
64296;BMP280;51082;38.236;15.432;2023-05-07T04:35:22;101337.81;;;14.55
64296;BMP280;51082;38.236;15.432;2023-05-07T04:36:24;101336.22;;;14.54
64296;BMP280;51082;38.236;15.432;2023-05-07T04:37:28;101335.56;;;14.52
64296;BMP280;51082;38.236;15.432;2023-05-07T04:38:29;101336.63;;;14.57
64296;BMP280;51082;38.236;15.432;2023-05-07T04:39:32;101334.19;;;14.56
64296;BMP280;51082;38.236;15.432;2023-05-07T04:40:35;101335.00;;;14.56
64296;BMP280;51082;38.236;15.432;2023-05-07T04:41:37;101344.47;;;14.64
64296;BMP280;51082;38.236;15.432;2023-05-07T04:42:38;101331.38;;;14.64
64296;BMP280;51082;38.236;15.432;2023-05-07T04:43:41;101338.22;;;14.65
64296;BMP280;51082;38.236;15.432;2023-05-07T04:44:42;101338.22;;;14.65
64296;BMP280;51082;38.236;15.432;2023-05-07T04:45:46;101334.78;;;14.64
64296;BMP280;51082;38.236;15.432;2023-05-07T04:46:52;101335.03;;;14.63
64296;BMP280;51082;38.236;15.432;2023-05-07T04:47:54;101337.84;;;14.61
64296;BMP280;51082;38.236;15.432;2023-05-07T04:48:55;101329.19;;;14.61
64296;BMP280;51082;38.236;15.432;2023-05-07T04:49:58;101331.81;;;14.61
64296;BMP280;51082;38.236;15.432;2023-05-07T04:50:59;101330.16;;;14.60
64296;BMP280;51082;38.236;15.432;2023-05-07T04:52:01;101327.94;;;14.63
64296;BMP280;51082;38.236;15.432;2023-05-07T04:53:04;101339.88;;;14.66
64296;BMP280;51082;38.236;15.432;2023-05-07T04:54:06;101336.63;;;14.71
64296;BMP280;51082;38.236;15.432;2023-05-07T04:55:08;101339.06;;;14.72
64296;BMP280;51082;38.236;15.432;2023-05-07T04:56:12;101337.88;;;14.75
64296;BMP280;51082;38.236;15.432;2023-05-07T04:57:13;101335.00;;;14.76
64296;BMP280;51082;38.236;15.432;2023-05-07T04:58:17;101343.69;;;14.83
64296;BMP280;51082;38.236;15.432;2023-05-07T04:59:18;101348.53;;;14.86
64296;BMP280;51082;38.236;15.432;2023-05-07T05:00:21;101352.38;;;14.90
64296;BMP280;51082;38.236;15.432;2023-05-07T05:01:23;101350.53;;;14.91
64296;BMP280;51082;38.236;15.432;2023-05-07T05:02:26;101359.63;;;14.95
64296;BMP280;51082;38.236;15.432;2023-05-07T05:03:27;101362.88;;;14.97
64296;BMP280;51082;38.236;15.432;2023-05-07T05:04:30;101353.75;;;14.99
64296;BMP280;51082;38.236;15.432;2023-05-07T05:05:32;101361.25;;;15.03
64296;BMP280;51082;38.236;15.432;2023-05-07T05:06:34;101357.00;;;15.08
64296;BMP280;51082;38.236;15.432;2023-05-07T05:07:35;101349.94;;;15.09
64296;BMP280;51082;38.236;15.432;2023-05-07T05:08:37;101358.00;;;15.14
64296;BMP280;51082;38.236;15.432;2023-05-07T05:09:39;101350.72;;;15.16
64296;BMP280;51082;38.236;15.432;2023-05-07T05:10:41;101355.16;;;15.22
64296;BMP280;51082;38.236;15.432;2023-05-07T05:11:43;101359.00;;;15.26
64296;BMP280;51082;38.236;15.432;2023-05-07T05:12:45;101360.81;;;15.32
64296;BMP280;51082;38.236;15.432;2023-05-07T05:13:49;101364.81;;;15.41
64296;BMP280;51082;38.236;15.432;2023-05-07T05:14:52;101360.56;;;15.40
64296;BMP280;51082;38.236;15.432;2023-05-07T05:15:53;101368.28;;;15.42
64296;BMP280;51082;38.236;15.432;2023-05-07T05:16:58;101359.56;;;15.41
64296;BMP280;51082;38.236;15.432;2023-05-07T05:17:59;101369.63;;;15.44
64296;BMP280;51082;38.236;15.432;2023-05-07T05:19:02;101369.63;;;15.44
64296;BMP280;51082;38.236;15.432;2023-05-07T05:20:04;101363.81;;;15.49
64296;BMP280;51082;38.236;15.432;2023-05-07T05:21:06;101370.84;;;15.55
64296;BMP280;51082;38.236;15.432;2023-05-07T05:22:07;101373.44;;;15.61
64296;BMP280;51082;38.236;15.432;2023-05-07T05:23:10;101376.88;;;15.69
64296;BMP280;51082;38.236;15.432;2023-05-07T05:24:11;101375.22;;;15.68
64296;BMP280;51082;38.236;15.432;2023-05-07T05:25:13;101380.91;;;15.71
64296;BMP280;51082;38.236;15.432;2023-05-07T05:26:15;101369.34;;;15.72
64296;BMP280;51082;38.236;15.432;2023-05-07T05:27:18;101370.78;;;15.75
64296;BMP280;51082;38.236;15.432;2023-05-07T05:28:19;101370.38;;;15.78
64296;BMP280;51082;38.236;15.432;2023-05-07T05:29:22;101370.16;;;15.79
64296;BMP280;51082;38.236;15.432;2023-05-07T05:30:23;101375.59;;;15.84
64296;BMP280;51082;38.236;15.432;2023-05-07T05:31:25;101371.94;;;15.92
64296;BMP280;51082;38.236;15.432;2023-05-07T05:32:28;101373.94;;;15.97
64296;BMP280;51082;38.236;15.432;2023-05-07T05:33:31;101377.16;;;15.99
64296;BMP280;51082;38.236;15.432;2023-05-07T05:34:32;101378.94;;;16.05
64296;BMP280;51082;38.236;15.432;2023-05-07T05:35:35;101370.84;;;16.06
64296;BMP280;51082;38.236;15.432;2023-05-07T05:36:37;101371.81;;;16.12
64296;BMP280;51082;38.236;15.432;2023-05-07T05:37:39;101371.81;;;16.18
64296;BMP280;51082;38.236;15.432;2023-05-07T05:38:41;101376.63;;;16.21
64296;BMP280;51082;38.236;15.432;2023-05-07T05:39:44;101372.97;;;16.29
64296;BMP280;51082;38.236;15.432;2023-05-07T05:40:46;101383.63;;;16.34
64296;BMP280;51082;38.236;15.432;2023-05-07T05:41:48;101378.94;;;16.43
64296;BMP280;51082;38.236;15.432;2023-05-07T05:42:49;101394.69;;;16.49
64296;BMP280;51082;38.236;15.432;2023-05-07T05:43:51;101391.78;;;16.58
64296;BMP280;51082;38.236;15.432;2023-05-07T05:44:53;101393.78;;;16.62
64296;BMP280;51082;38.236;15.432;2023-05-07T05:45:55;101392.94;;;16.68
64296;BMP280;51082;38.236;15.432;2023-05-07T05:46:56;101393.66;;;16.75
64296;BMP280;51082;38.236;15.432;2023-05-07T05:48:04;101393.16;;;16.85
64296;BMP280;51082;38.236;15.432;2023-05-07T05:49:07;101391.53;;;16.91